Latest Weather Observations for Murrurundi Gap

IDN60801

Issued at 10:02 am EST Wednesday 24 May 2017 (issued every 30 minutes, with the page automatically refreshed every 10 minutes)

About weather observations | Map of weather stations | Latest weather observations for NSW | Other Formats
Station Details ID: 061392 Name: MURRURUNDI GAP AWS Lat: -31.74 Lon: 150.79 Height: 729.4 m
Data from the previous 72 hours. | See also: Recent months at Murrurundi Gap
Date/Time
EST
Temp
°C
App
Temp
°C
Dew
Point
°C
Rel
Hum
%
Delta-T
°C
Wind Press
QNH
hPa
Press
MSL
hPa
Rain since
9am
mm
Dir  Spd
km/h
Gust
km/h
Spd
kts
Gust
kts
24/10:00am 14.7 7.3 11.1 79 2.0 NW 41 50 22 27 1018.3 1017.3 0.0
24/09:30am 14.7 8.7 10.9 78 2.1 NW 33 43 18 23 1018.7 1017.6 0.0
24/09:00am 14.3 8.5 10.7 79 2.0 WNW 32 37 17 20 1019.0 1017.9 0.0
24/08:30am 14.1 9.4 10.5 79 2.0 WNW 26 32 14 17 1019.1 1018.1 0.0
24/08:00am 12.4 8.9 10.1 86 1.2 NW 19 22 10 12 1019.2 1018.2 0.0
24/07:30am 12.6 8.0 9.8 83 1.5 WNW 24 28 13 15 1019.1 1018.1 0.0
24/07:00am 12.8 8.6 9.6 81 1.7 WNW 22 28 12 15 1018.9 1017.8 0.0
24/06:30am 13.0 8.4 9.6 80 1.8 NW 24 28 13 15 1018.8 1017.7 0.0
24/06:00am 13.1 8.9 9.7 80 1.8 NW 22 26 12 14 1018.7 1017.6 0.0
24/05:30am 13.1 8.5 9.5 79 1.9 NW 24 35 13 19 1018.4 1017.4 0.0
24/05:00am 12.6 8.3 9.2 80 1.8 NW 22 26 12 14 1018.2 1017.2 0.0
24/04:30am 12.5 7.8 9.1 80 1.8 NW 24 28 13 15 1018.4 1017.4 0.0
24/04:00am 12.9 8.6 9.2 78 1.9 NW 22 30 12 16 1018.3 1017.3 0.0
24/03:30am 12.5 8.6 9.3 81 1.7 WNW 20 28 11 15 1018.5 1017.5 0.0
24/03:00am 12.4 9.1 9.4 82 1.6 WNW 17 20 9 11 1018.5 1017.5 0.0
24/02:30am 11.9 7.6 9.3 84 1.4 NW 22 26 12 14 1019.2 1018.2 0.0
24/02:00am 13.1 9.4 9.4 78 2.0 NW 19 24 10 13 1019.1 1018.1 0.0
24/01:30am 12.7 9.0 9.3 80 1.8 NW 19 24 10 13 1019.4 1018.4 0.0
24/01:00am 12.3 8.6 10.0 86 1.2 NW 20 24 11 13 1019.6 1018.6 0.0
24/12:30am 12.6 8.8 9.8 83 1.5 WNW 20 26 11 14 1020.2 1019.1 0.0
24/12:00am 12.4 8.4 10.5 88 1.0 NW 22 24 12 13 1020.5 1019.5 0.0
 
Date/Time
EST
Temp
°C
App
Temp
°C
Dew
Point
°C
Rel
Hum
%
Delta-T
°C
Wind Press
QNH
hPa
Press
MSL
hPa
Rain since
9am
mm
Dir  Spd
km/h
Gust
km/h
Spd
kts
Gust
kts
23/11:30pm 11.7 8.1 10.6 93 0.6 NW 20 24 11 13 1020.7 1019.7 0.0
23/11:00pm 11.7 7.4 10.6 93 0.6 NW 24 28 13 15 1020.9 1019.9 0.0
23/10:30pm 12.2 8.8 11.1 93 0.6 NW 20 22 11 12 1021.0 1020.0 0.0
23/10:00pm 12.0 8.6 11.1 94 0.5 NW 20 24 11 13 1021.2 1020.2 0.0
23/09:30pm 11.9 8.4 11.0 94 0.5 NW 20 22 11 12 1021.2 1020.2 0.0
23/09:00pm 12.3 9.1 11.4 94 0.5 NW 19 20 10 11 1021.2 1020.2 0.0
23/08:30pm 12.7 10.0 11.6 93 0.6 NW 17 19 9 10 1021.1 1020.1 0.0
23/08:00pm 13.2 10.9 11.6 90 0.9 NW 15 19 8 10 1021.1 1020.1 0.0
23/07:30pm 14.3 10.5 11.3 82 1.7 NNW 22 26 12 14 1020.5 1019.5 0.0
23/07:00pm 13.8 11.2 12.0 89 1.0 WNW 17 20 9 11 1021.2 1020.2 0.0
23/06:30pm 14.2 11.3 12.2 88 1.1 NW 19 24 10 13 1021.1 1020.1 0.0
23/06:00pm 14.3 12.6 12.5 89 1.0 WNW 13 15 7 8 1021.5 1020.6 0.0
23/05:30pm 14.6 11.2 12.6 88 1.1 NNW 22 28 12 15 1021.0 1020.0 0.0
23/05:00pm 14.8 10.1 12.1 84 1.5 NW 28 39 15 21 1020.7 1019.7 0.0
23/04:49pm 15.7 12.6 12.1 79 2.0 NW 20 46 11 25 1020.6 1019.6 0.0
23/04:30pm 16.1 14.7 12.1 77 2.3 NW 11 13 6 7 1020.9 1019.9 0.0
23/04:00pm 16.8 14.9 11.7 72 2.9 WNW 13 17 7 9 1020.8 1019.8 0.0
23/03:30pm 17.4 15.7 11.2 67 3.5 NW 11 13 6 7 1020.7 1019.7 0.0
23/03:00pm 18.1 15.2 11.0 63 4.0 W 17 22 9 12 1020.7 1019.7 0.0
23/02:30pm 18.4 15.6 11.2 63 4.1 NNW 17 20 9 11 1020.8 1019.8 0.0
23/02:00pm 17.8 13.7 11.6 67 3.5 NW 24 33 13 18 1020.9 1019.9 0.0
23/01:30pm 17.0 12.3 10.8 67 3.4 NW 26 32 14 17 1020.7 1019.7 0.0
23/01:00pm 18.2 13.9 12.0 67 3.5 NW 26 33 14 18 1021.0 1020.0 0.0
23/12:30pm 17.3 12.7 10.9 66 3.6 WNW 26 32 14 17 1021.5 1020.6 0.0
23/12:00pm 17.4 12.3 10.5 64 3.8 NW 28 33 15 18 1022.1 1021.1 0.0
23/11:30am 17.7 13.3 10.3 62 4.1 NW 24 32 13 17 1022.5 1021.5 0.0
23/11:00am 17.0 13.0 10.6 66 3.5 NW 22 28 12 15 1023.1 1022.1 0.0
23/10:30am 17.2 14.0 9.9 62 4.0 NNW 17 24 9 13 1023.3 1022.3 0.0
23/10:00am 16.5 13.2 11.0 70 3.0 NNW 19 24 10 13 1023.7 1022.7 0.0
23/09:30am 15.5 15.2 12.6 83 1.7 NNE 6 11 3 6 1023.9 1023.0 0.0
23/09:00am 12.6 12.0 10.5 87 1.1 ESE 4 7 2 4 1024.0 1023.1 0.4
23/08:30am 13.8 12.3 11.8 88 1.1 NW 11 13 6 7 1024.0 1023.1 0.4
23/08:00am 12.2 10.0 10.8 91 0.8 WNW 13 15 7 8 1023.9 1023.0 0.4
23/07:30am 12.0 9.8 10.7 92 0.7 NW 13 15 7 8 1023.7 1022.7 0.4
23/07:00am 11.5 9.2 10.4 93 0.6 NW 13 15 7 8 1023.2 1022.2 0.4
23/06:30am 11.9 9.6 10.5 91 0.8 WNW 13 15 7 8 1022.7 1021.8 0.4
23/06:00am 12.2 12.0 11.7 97 0.3 SE 4 7 2 4 1022.4 1021.4 0.4
23/05:30am 11.2 10.2 10.9 98 0.2 ESE 7 9 4 5 1022.3 1021.3 0.4
23/05:00am 11.5 10.6 11.2 98 0.2 ESE 7 9 4 5 1022.3 1021.3 0.4
23/04:30am 11.7 10.5 11.5 99 0.1 ESE 9 11 5 6 1022.3 1021.3 0.2
23/04:21am 11.5 9.8 11.3 99 0.1 SE 11 13 6 7 1022.3 1021.3 0.2
23/04:00am 11.3 9.6 11.1 99 0.1 ESE 11 11 6 6 1022.2 1021.2 0.2
23/03:44am 11.8 10.2 11.6 99 0.1 ESE 11 11 6 6 1022.2 1021.2 0.2
23/03:37am 11.7 10.5 11.5 99 0.1 ESE 9 11 5 6 1022.3 1021.3 0.2
23/03:30am 11.9 10.7 11.7 99 0.1 ESE 9 11 5 6 1022.3 1021.3 0.2
23/03:00am 12.4 11.4 12.2 99 0.1 ESE 9 9 5 5 1022.5 1021.5 0.2
23/02:30am 11.8 10.6 11.6 99 0.1 ESE 9 11 5 6 1022.5 1021.5 0.2
23/02:00am 12.2 11.1 12.0 99 0.1 ESE 9 9 5 5 1022.3 1021.3 0.2
23/01:38am 12.0 10.9 11.8 99 0.1 ESE 9 11 5 6 1022.5 1021.5 0.2
23/01:30am 12.0 10.5 11.8 99 0.1 SE 11 13 6 7 1022.5 1021.5 0.2
23/01:14am 12.2 10.7 12.0 99 0.1 ESE 11 11 6 6 1022.6 1021.7 0.0
23/01:00am 12.1 10.6 11.9 99 0.1 ESE 11 13 6 7 1022.8 1021.9 0.0
23/12:30am 12.0 10.1 11.8 99 0.1 ESE 13 13 7 7 1023.1 1022.1 0.0
23/12:00am 12.3 10.5 12.1 99 0.1 SE 13 15 7 8 1023.1 1022.1 0.0
 
Date/Time
EST
Temp
°C
App
Temp
°C
Dew
Point
°C
Rel
Hum
%
Delta-T
°C
Wind Press
QNH
hPa
Press
MSL
hPa
Rain since
9am
mm
Dir  Spd
km/h
Gust
km/h
Spd
kts
Gust
kts
22/11:30pm 12.4 10.6 12.2 99 0.1 ESE 13 15 7 8 1023.5 1022.5 0.0
22/11:28pm 12.3 10.5 12.1 99 0.1 ESE 13 15 7 8 1023.5 1022.5 0.0
22/11:11pm 12.5 10.8 12.3 99 0.1 ESE 13 15 7 8 1023.7 1022.7 0.0
22/11:00pm 12.5 10.8 12.3 99 0.1 ESE 13 17 7 9 1023.7 1022.7 0.0
22/10:49pm 12.5 10.8 12.3 99 0.1 ESE 13 15 7 8 1023.8 1022.9 0.0
22/10:40pm 12.9 11.3 12.7 99 0.1 ESE 13 15 7 8 1023.8 1022.9 0.0
22/10:30pm 12.5 10.8 12.3 99 0.1 ESE 13 15 7 8 1023.8 1022.9 0.0
22/10:00pm 12.5 10.8 12.3 99 0.1 ESE 13 17 7 9 1023.9 1023.0 0.0
22/09:52pm 12.7 10.6 12.5 99 0.1 ESE 15 17 8 9 1023.9 1023.0 0.0
22/09:51pm 12.7 10.6 12.5 99 0.1 ESE 15 17 8 9 1023.9 1023.0 0.0
22/09:30pm 12.7 11.0 12.5 99 0.1 ESE 13 15 7 8 1023.9 1023.0 0.0
22/09:00pm 12.6 10.5 12.4 99 0.1 ESE 15 17 8 9 1023.8 1022.9 0.0
22/08:54pm 12.8 11.1 12.6 99 0.1 ESE 13 15 7 8 1023.8 1022.9 0.0
22/08:30pm 12.9 10.9 12.7 99 0.1 SE 15 17 8 9 1023.8 1022.9 0.0
22/08:00pm 13.0 10.6 12.8 99 0.1 ESE 17 19 9 10 1023.6 1022.6 0.0
22/07:30pm 12.9 10.9 12.6 98 0.2 ESE 15 17 8 9 1023.4 1022.4 0.0
22/07:00pm 13.0 11.0 12.7 98 0.2 ESE 15 19 8 10 1023.4 1022.4 0.0
22/06:30pm 13.4 11.0 12.6 95 0.5 SE 17 20 9 11 1023.3 1022.3 0.0
22/06:00pm 14.0 11.2 12.7 92 0.7 SSE 19 20 10 11 1023.1 1022.1 0.0
22/05:30pm 13.8 11.4 12.7 93 0.6 SSE 17 20 9 11 1022.7 1021.8 0.0
22/05:00pm 14.6 12.2 12.8 89 1.0 SSE 17 20 9 11 1022.5 1021.5 0.0
22/04:30pm 15.5 13.7 13.2 86 1.3 SE 15 19 8 10 1022.5 1021.5 0.0
22/04:00pm 15.5 14.0 13.0 85 1.4 SE 13 17 7 9 1022.3 1021.3 0.0
22/03:30pm 15.9 14.1 13.2 84 1.6 SSE 15 17 8 9 1022.2 1021.2 0.0
22/03:00pm 17.2 15.6 12.9 76 2.5 ESE 13 17 7 9 1022.2 1021.2 0.0
22/02:30pm 16.9 15.5 13.4 80 2.0 SE 13 17 7 9 1022.3 1021.3 0.0
22/02:00pm 16.7 15.2 13.2 80 2.0 ESE 13 15 7 8 1022.4 1021.4 0.0
22/01:30pm 16.7 15.6 13.0 79 2.1 ESE 11 15 6 8 1022.5 1021.5 0.0
22/01:00pm 17.0 15.9 13.1 78 2.3 ESE 11 15 6 8 1022.7 1021.8 0.0
22/12:30pm 16.8 15.2 12.7 77 2.4 ESE 13 19 7 10 1023.2 1022.2 0.0
22/12:00pm 16.3 13.9 12.8 80 2.0 ESE 17 20 9 11 1023.4 1022.4 0.0
22/11:30am 16.0 13.9 13.5 85 1.5 ESE 17 20 9 11 1024.1 1023.2 0.0
22/11:00am 14.8 12.4 12.5 86 1.3 ESE 17 20 9 11 1024.4 1023.5 0.0
22/10:59am 15.0 12.7 13.0 88 1.1 ESE 17 20 9 11 1024.6 1023.6 0.0
22/10:30am 13.5 10.7 12.7 95 0.5 ESE 19 22 10 12 1024.9 1023.9 0.0
22/10:18am 13.0 10.2 12.7 98 0.2 ESE 19 24 10 13 1024.9 1023.9 0.0
22/10:17am 13.1 10.4 12.9 99 0.1 ESE 19 24 10 13 1024.9 1023.9 0.0
22/10:00am 12.9 10.0 12.9 100 0.0 ESE 20 22 11 12 1025.0 1024.1 0.0
22/09:57am 13.0 10.1 13.0 100 0.0 ESE 20 22 11 12 1025.0 1024.1 0.0
22/09:30am 12.8 10.1 12.8 100 0.0 SE 19 22 10 12 1025.2 1024.3 0.0
22/09:00am 12.2 9.1 12.2 100 0.0 SE 20 22 11 12 1025.1 1024.2 0.0
22/08:30am 11.7 8.6 11.7 100 0.0 SE 19 22 10 12 1024.9 1023.9 0.0
22/08:00am 11.6 8.5 11.6 100 0.0 ESE 19 20 10 11 1024.4 1023.5 0.0
22/07:30am 11.5 8.4 11.5 100 0.0 SE 19 22 10 12 1024.2 1023.3 0.0
22/07:00am 11.1 7.6 10.9 99 0.1 ESE 20 22 11 12 1023.9 1023.0 0.0
22/06:30am 11.1 7.8 10.9 99 0.1 SE 19 20 10 11 1023.7 1022.7 0.0
22/06:00am 11.2 7.9 11.0 99 0.1 SE 19 20 10 11 1023.4 1022.4 0.0
22/05:30am 10.5 7.0 10.3 99 0.1 ESE 19 20 10 11 1023.1 1022.1 0.0
22/05:00am 11.2 7.7 11.0 99 0.1 SE 20 22 11 12 1022.8 1021.9 0.0
22/04:30am 11.0 7.5 10.8 99 0.1 SE 20 22 11 12 1022.5 1021.5 0.0
22/04:00am 10.8 7.4 10.6 99 0.1 ESE 19 20 10 11 1022.4 1021.4 0.0
22/03:30am 10.5 7.4 10.3 99 0.1 SE 17 17 9 9 1022.4 1021.4 0.0
22/03:00am 10.8 8.2 10.6 99 0.1 SE 15 17 8 9 1022.4 1021.4 0.0
22/02:30am 10.8 7.8 10.6 99 0.1 SE 17 19 9 10 1022.5 1021.5 0.0
22/02:16am 11.0 8.0 10.8 99 0.1 SE 17 19 9 10 1022.4 1021.4 0.0
22/02:01am 11.1 7.8 10.9 99 0.1 SE 19 20 10 11 1022.4 1021.4 0.0
22/02:00am 11.1 7.8 10.9 99 0.1 SE 19 20 10 11 1022.5 1021.5 0.0
22/01:30am 11.7 9.5 10.8 94 0.5 SE 13 17 7 9 1022.5 1021.5 0.0
22/01:00am 12.9 10.3 10.8 87 1.1 SE 15 17 8 9 1022.5 1021.5 0.0
22/12:30am 13.4 11.2 10.8 84 1.4 ESE 13 15 7 8 1022.8 1021.9 0.0
22/12:00am 13.3 11.1 10.8 85 1.4 ESE 13 15 7 8 1022.8 1021.9 0.0
 
Date/Time
EST
Temp
°C
App
Temp
°C
Dew
Point
°C
Rel
Hum
%
Delta-T
°C
Wind Press
QNH
hPa
Press
MSL
hPa
Rain since
9am
mm
Dir  Spd
km/h
Gust
km/h
Spd
kts
Gust
kts
21/11:30pm 14.0 11.9 11.2 83 1.5 SE 13 13 7 7 1022.9 1022.0 0.0
21/11:00pm 13.8 11.7 11.1 84 1.5 ESE 13 15 7 8 1022.9 1022.0 0.0
21/10:30pm 13.5 11.4 11.2 86 1.3 SE 13 13 7 7 1022.8 1021.9 0.0
21/10:00pm 13.8 12.2 11.5 86 1.3 ESE 11 13 6 7 1022.9 1022.0 0.0
21/09:30pm 13.7 12.1 11.4 86 1.3 ESE 11 13 6 7 1023.1 1022.1 0.0
21/09:00pm 13.4 11.4 11.5 88 1.0 ESE 13 15 7 8 1023.1 1022.1 0.0
21/08:30pm 13.8 11.9 11.8 88 1.1 SE 13 13 7 7 1022.9 1022.0 0.0
21/08:00pm 13.6 12.1 11.8 89 1.0 ESE 11 13 6 7 1022.8 1021.9 0.0
21/07:30pm 14.5 13.8 12.0 85 1.4 SE 7 9 4 5 1022.6 1021.7 0.0
21/07:00pm 14.3 12.5 12.0 86 1.3 SE 13 13 7 7 1022.4 1021.4 0.0
21/06:30pm 14.8 13.9 11.2 79 2.0 SE 7 11 4 6 1022.1 1021.1 0.0
21/06:00pm 14.9 13.9 11.1 78 2.1 ESE 7 9 4 5 1021.7 1020.7 0.0
21/05:30pm 16.0 15.6 11.0 72 2.8 NW 4 7 2 4 1021.4 1020.5 0.0
21/05:00pm 16.5 15.6 10.8 69 3.1 WNW 6 7 3 4 1021.1 1020.1 0.0
21/04:30pm 17.1 16.4 11.4 69 3.2 WNW 6 9 3 5 1020.9 1019.9 0.0
21/04:00pm 17.6 15.6 10.2 62 4.1 WNW 11 15 6 8 1020.5 1019.5 0.0
21/03:30pm 18.3 14.6 10.2 59 4.5 NW 20 28 11 15 1020.3 1019.3 0.0
21/03:00pm 18.9 15.9 12.4 66 3.7 NW 20 28 11 15 1020.3 1019.3 0.0
21/02:30pm 19.2 15.6 10.7 58 4.8 WNW 20 28 11 15 1020.0 1019.0 0.0
21/02:00pm 18.8 15.1 11.4 62 4.2 NW 22 28 12 15 1020.2 1019.1 0.0
21/01:30pm 18.9 15.5 11.2 61 4.4 NW 20 26 11 14 1020.0 1019.0 0.0
21/01:00pm 17.7 15.4 13.0 74 2.7 WNW 17 22 9 12 1020.5 1019.5 0.0
21/12:30pm 17.5 15.5 12.8 74 2.7 WNW 15 20 8 11 1020.9 1019.9 0.0
21/12:00pm 18.1 16.8 13.8 76 2.5 WNW 13 20 7 11 1021.1 1020.1 0.0
21/11:30am 17.6 15.7 11.9 69 3.2 NW 13 19 7 10 1021.7 1020.7 0.0
21/11:00am 18.4 17.1 13.7 74 2.8 N 13 17 7 9 1022.0 1021.0 0.0
21/10:30am 16.5 15.4 13.2 81 1.9 N 11 17 6 9 1022.3 1021.3 0.0
21/10:28am 16.7 16.0 13.2 80 2.0 N 9 17 5 9 1022.3 1021.3 0.0
21/10:15am 17.8 17.2 14.7 82 1.9 NNW 11 19 6 10 1022.4 1021.4 0.0

Other Formats:

Comma delimited format used in spreadsheet applications
http://www.bom.gov.au/fwo/IDN60801/IDN60801.95747.axf

JavaScript Object Notation format (JSON) in row-major order
http://www.bom.gov.au/fwo/IDN60801/IDN60801.95747.json